createdAt,value
2023-04-18T00:00:25.850Z,4.53
2023-04-18T00:03:15.963Z,3.83
2023-04-18T00:05:47.952Z,3.72
2023-04-18T00:08:17.158Z,4.68
2023-04-18T00:10:44.598Z,3.92
2023-04-18T00:13:12.512Z,4.82
2023-04-18T00:15:44.021Z,4.10
2023-04-18T00:18:16.290Z,6.03
2023-04-18T00:20:43.954Z,5.47
2023-04-18T00:23:14.199Z,7.55
2023-04-18T00:25:41.503Z,5.15
2023-04-18T00:28:10.069Z,4.43
2023-04-18T00:30:38.745Z,4.05
2023-04-18T00:33:06.527Z,4.47
2023-04-18T00:35:33.878Z,4.50
2023-04-18T00:38:02.495Z,4.35
2023-04-18T00:40:31.887Z,4.00
2023-04-18T00:43:01.040Z,3.90
2023-04-18T00:45:28.457Z,3.92
2023-04-18T00:47:56.566Z,4.38
2023-04-18T00:50:24.536Z,3.80
2023-04-18T00:52:54.084Z,3.65
2023-04-18T00:55:23.086Z,4.05
2023-04-18T00:57:53.240Z,4.05
2023-04-18T01:00:21.116Z,3.97
2023-04-18T01:02:53.245Z,3.83
2023-04-18T01:05:21.797Z,4.55
2023-04-18T01:07:50.052Z,4.03
2023-04-18T01:10:18.089Z,5.25
2023-04-18T01:12:45.982Z,3.80
2023-04-18T01:15:13.574Z,4.10
2023-04-18T01:17:44.667Z,4.10
2023-04-18T01:20:17.861Z,5.00
2023-04-18T01:22:46.178Z,4.90
2023-04-18T01:25:13.625Z,4.75
2023-04-18T01:27:41.248Z,4.47
2023-04-18T01:30:09.225Z,4.35
2023-04-18T01:32:36.892Z,4.10
2023-04-18T01:35:06.144Z,4.00
2023-04-18T01:37:35.620Z,4.35
2023-04-18T01:40:09.743Z,4.45
2023-04-18T01:42:39.598Z,3.92
2023-04-18T01:45:08.129Z,4.55
2023-04-18T01:47:35.890Z,5.25
2023-04-18T01:50:04.106Z,4.18
2023-04-18T01:52:35.649Z,4.65
2023-04-18T01:55:03.876Z,4.43
2023-04-18T01:57:33.657Z,3.88
2023-04-18T02:00:07.162Z,4.07
2023-04-18T02:02:44.319Z,4.35
2023-04-18T02:05:11.884Z,3.65
2023-04-18T02:07:42.834Z,3.95
2023-04-18T02:10:11.379Z,3.50
2023-04-18T02:12:39.702Z,3.17
2023-04-18T02:15:07.499Z,3.30
2023-04-18T02:17:36.912Z,3.30
2023-04-18T02:20:08.282Z,2.95
2023-04-18T02:22:38.350Z,8.30
2023-04-18T02:25:06.038Z,3.45
2023-04-18T02:27:36.739Z,2.40
2023-04-18T02:30:06.425Z,2.67
2023-04-18T02:32:35.041Z,3.05
2023-04-18T02:35:02.450Z,2.90
2023-04-18T02:37:30.109Z,2.33
2023-04-18T02:39:57.488Z,1.98
2023-04-18T02:42:25.079Z,2.30
2023-04-18T02:44:52.545Z,1.98
2023-04-18T02:47:20.331Z,2.05
2023-04-18T02:49:47.703Z,2.15
2023-04-18T02:52:17.731Z,3.38
2023-04-18T02:54:45.259Z,1.73
2023-04-18T02:57:20.847Z,2.30
2023-04-18T03:00:09.556Z,1.60
2023-04-18T03:03:17.026Z,1.90
2023-04-18T03:06:03.258Z,2.00
2023-04-18T03:08:32.954Z,1.80
2023-04-18T03:11:00.534Z,2.15
2023-04-18T03:13:30.818Z,2.13
2023-04-18T03:15:58.968Z,2.35
2023-04-18T03:18:29.034Z,4.65
2023-04-18T03:20:59.180Z,2.92
2023-04-18T03:23:28.167Z,3.28
2023-04-18T03:25:55.690Z,2.42
2023-04-18T03:28:24.552Z,2.80
2023-04-18T03:30:51.889Z,2.72
2023-04-18T03:33:19.504Z,3.03
2023-04-18T03:35:49.858Z,1.80
2023-04-18T03:38:17.486Z,2.00
2023-04-18T03:40:45.465Z,2.60
2023-04-18T03:43:21.959Z,2.40
2023-04-18T03:45:50.222Z,1.85
2023-04-18T03:48:18.990Z,1.90
2023-04-18T03:50:47.553Z,2.10
2023-04-18T03:53:16.215Z,2.30
2023-04-18T03:55:43.783Z,1.90
2023-04-18T03:58:16.414Z,1.85
2023-04-18T04:00:47.727Z,1.95
2023-04-18T04:03:17.350Z,2.13
2023-04-18T04:05:46.776Z,3.05
2023-04-18T04:08:16.646Z,2.45
2023-04-18T04:10:46.556Z,2.95
2023-04-18T04:13:14.187Z,3.00
2023-04-18T04:15:42.289Z,2.28
2023-04-18T04:18:13.099Z,2.17
2023-04-18T04:20:48.081Z,2.20
2023-04-18T04:23:43.013Z,2.75
2023-04-18T04:26:23.382Z,2.00
2023-04-18T04:29:04.427Z,1.98
2023-04-18T04:31:34.383Z,2.33
2023-04-18T04:34:03.427Z,2.17
2023-04-18T04:36:33.506Z,2.80
2023-04-18T04:39:04.332Z,1.42
2023-04-18T04:41:49.910Z,1.98
2023-04-18T04:44:22.080Z,2.15
2023-04-18T04:46:49.966Z,1.63
2023-04-18T04:49:22.689Z,2.00
2023-04-18T04:51:49.954Z,2.00
2023-04-18T04:54:21.498Z,1.42
2023-04-18T04:56:49.083Z,1.58
2023-04-18T04:59:16.896Z,2.30
2023-04-18T05:01:46.865Z,2.65
2023-04-18T05:04:18.760Z,1.60
2023-04-18T05:06:46.558Z,2.00
2023-04-18T05:09:16.602Z,2.00
2023-04-18T05:11:43.972Z,1.95
2023-04-18T05:14:12.707Z,2.22
2023-04-18T05:16:40.500Z,1.63
2023-04-18T05:19:08.198Z,1.85
2023-04-18T05:21:35.864Z,1.52
2023-04-18T05:24:03.746Z,1.77
2023-04-18T05:26:33.395Z,1.88
2023-04-18T05:29:01.007Z,1.73
2023-04-18T05:31:28.401Z,2.08
2023-04-18T05:33:57.109Z,1.67
2023-04-18T05:36:24.504Z,1.48
2023-04-18T05:38:53.876Z,2.08
2023-04-18T05:41:21.489Z,1.80
2023-04-18T05:44:01.855Z,2.30
2023-04-18T05:46:34.151Z,2.45
2023-04-18T05:49:05.019Z,2.38
2023-04-18T05:51:33.470Z,1.88
2023-04-18T05:54:01.059Z,1.90
2023-04-18T05:56:28.396Z,1.85
2023-04-18T05:58:56.203Z,2.60
2023-04-18T06:01:24.013Z,2.25
2023-04-18T06:03:52.738Z,2.13
2023-04-18T06:06:20.567Z,2.60
2023-04-18T06:08:48.188Z,2.35
2023-04-18T06:11:15.929Z,2.35
2023-04-18T06:13:45.907Z,2.42
2023-04-18T06:16:13.729Z,2.55
2023-04-18T06:18:41.363Z,2.08
2023-04-18T06:21:10.970Z,2.63
2023-04-18T06:23:39.933Z,3.15
2023-04-18T06:26:07.554Z,2.22
2023-04-18T06:28:35.733Z,2.58
2023-04-18T06:31:04.129Z,2.40
2023-04-18T06:33:31.747Z,2.58
2023-04-18T06:35:59.769Z,2.92
2023-04-18T06:38:28.117Z,3.20
2023-04-18T06:40:55.453Z,3.13
2023-04-18T06:43:23.091Z,2.67
2023-04-18T06:45:51.701Z,3.40
2023-04-18T06:48:21.057Z,3.38
2023-04-18T06:50:49.076Z,2.95
2023-04-18T06:53:16.634Z,3.25
2023-04-18T06:55:44.033Z,3.38
2023-04-18T06:58:13.851Z,3.35
2023-04-18T07:00:41.487Z,2.90
2023-04-18T07:03:13.859Z,5.10
2023-04-18T07:05:41.635Z,7.05
2023-04-18T07:08:09.373Z,3.90
2023-04-18T07:10:38.066Z,3.42
2023-04-18T07:13:06.699Z,5.00
2023-04-18T07:15:38.037Z,3.03
2023-04-18T07:18:05.806Z,3.65
2023-04-18T07:20:33.298Z,4.38
2023-04-18T07:23:02.215Z,3.70
2023-04-18T07:25:29.510Z,6.38
2023-04-18T07:27:57.123Z,6.13
2023-04-18T07:30:25.151Z,4.80
2023-04-18T07:32:52.888Z,5.05
2023-04-18T07:35:20.833Z,5.22
2023-04-18T07:37:48.630Z,4.10
2023-04-18T07:40:16.835Z,3.58
2023-04-18T07:42:44.948Z,2.92
2023-04-18T07:45:15.525Z,4.25
2023-04-18T07:47:44.832Z,6.68
2023-04-18T07:50:13.600Z,16.30
2023-04-18T07:52:41.325Z,4.40
2023-04-18T07:55:09.868Z,4.00
2023-04-18T07:57:38.992Z,4.18
2023-04-18T08:00:09.523Z,4.72
2023-04-18T08:02:43.349Z,4.97
2023-04-18T08:05:11.082Z,5.93
2023-04-18T08:07:39.028Z,4.03
2023-04-18T08:10:06.956Z,3.78
2023-04-18T08:12:36.409Z,3.88
2023-04-18T08:15:04.603Z,5.35
2023-04-18T08:17:33.266Z,3.85
2023-04-18T08:20:01.101Z,3.15
2023-04-18T08:22:28.709Z,3.80
2023-04-18T08:25:04.340Z,4.32
2023-04-18T08:27:33.468Z,2.88
2023-04-18T08:30:01.379Z,3.22
2023-04-18T08:32:30.075Z,3.83
2023-04-18T08:34:57.346Z,4.05
2023-04-18T08:37:24.979Z,3.45
2023-04-18T08:39:52.272Z,4.45
2023-04-18T08:42:21.674Z,3.35
2023-04-18T08:44:52.753Z,2.88
2023-04-18T08:47:20.910Z,2.15
2023-04-18T08:49:48.951Z,2.97
2023-04-18T08:52:19.732Z,3.58
2023-04-18T08:54:47.324Z,5.10
2023-04-18T08:57:17.099Z,4.85
2023-04-18T08:59:49.627Z,4.40
2023-04-18T09:02:19.547Z,4.50
2023-04-18T09:04:49.496Z,3.65
2023-04-18T09:07:18.578Z,3.15
2023-04-18T09:09:48.894Z,2.90
2023-04-18T09:12:22.825Z,2.78
2023-04-18T09:14:56.594Z,6.22
2023-04-18T09:17:37.048Z,5.60
2023-04-18T09:20:13.130Z,3.85
2023-04-18T09:22:48.207Z,3.03
2023-04-18T09:25:29.561Z,4.75
2023-04-18T09:28:00.891Z,3.70
2023-04-18T09:30:39.733Z,5.57
2023-04-18T09:33:10.314Z,3.83
2023-04-18T09:35:38.483Z,5.90
2023-04-18T09:38:07.965Z,3.67
2023-04-18T09:40:36.219Z,2.90
2023-04-18T09:43:20.434Z,3.53
2023-04-18T09:45:51.091Z,2.95
2023-04-18T09:48:18.790Z,4.68
2023-04-18T09:51:14.921Z,3.63
2023-04-18T09:53:55.582Z,4.05
2023-04-18T09:56:29.613Z,4.60
2023-04-18T09:59:07.483Z,9.10
2023-04-18T10:01:35.440Z,5.45
2023-04-18T10:04:06.950Z,9.25
2023-04-18T10:06:38.574Z,4.70
2023-04-18T10:09:08.760Z,6.53
2023-04-18T10:11:36.624Z,5.45
2023-04-18T10:14:09.935Z,5.30
2023-04-18T10:16:38.890Z,5.22
2023-04-18T10:19:27.358Z,3.03
2023-04-18T10:21:56.133Z,4.53
2023-04-18T10:24:45.953Z,3.28
2023-04-18T10:27:13.483Z,2.65
2023-04-18T10:30:08.973Z,2.67
2023-04-18T10:32:36.560Z,3.83
2023-04-18T10:35:05.442Z,3.70
2023-04-18T10:37:34.362Z,3.83
2023-04-18T10:40:09.926Z,3.22
2023-04-18T10:42:47.052Z,2.60
2023-04-18T10:45:21.519Z,2.45
2023-04-18T10:47:50.090Z,2.65
2023-04-18T10:50:18.173Z,3.10
2023-04-18T10:52:47.073Z,3.78
2023-04-18T10:55:20.920Z,3.75
2023-04-18T10:57:51.894Z,7.72
2023-04-18T11:00:25.080Z,6.22
2023-04-18T11:02:57.707Z,9.93
2023-04-18T11:05:29.424Z,5.28
2023-04-18T11:07:56.819Z,4.88
2023-04-18T11:10:27.186Z,4.35
2023-04-18T11:12:56.699Z,4.35
2023-04-18T11:15:25.668Z,3.92
2023-04-18T11:18:05.212Z,5.95
2023-04-18T11:20:41.094Z,4.35
2023-04-18T11:23:25.100Z,5.05
2023-04-18T11:25:56.721Z,3.70
2023-04-18T11:28:27.282Z,3.72
2023-04-18T11:31:01.941Z,3.08
2023-04-18T11:33:29.891Z,2.95
2023-04-18T11:36:01.845Z,3.85
2023-04-18T11:38:34.037Z,3.63
2023-04-18T11:41:03.316Z,3.60
2023-04-18T11:43:30.770Z,4.10
2023-04-18T11:46:00.388Z,10.75
2023-04-18T11:48:38.450Z,40.80
2023-04-18T11:51:10.902Z,21.17
2023-04-18T11:53:39.683Z,6.25
2023-04-18T11:56:07.641Z,5.70
2023-04-18T11:58:36.535Z,6.68
2023-04-18T12:01:36.016Z,13.38
2023-04-18T12:18:34.405Z,5.03
2023-04-18T12:21:06.048Z,8.02
2023-04-18T12:23:35.766Z,5.60
2023-04-18T12:26:05.967Z,5.57
2023-04-18T12:28:35.565Z,5.35
2023-04-18T12:31:05.667Z,3.58
2023-04-18T12:33:38.754Z,3.65
2023-04-18T12:36:08.606Z,3.95
2023-04-18T12:38:36.283Z,4.43
2023-04-18T12:41:04.175Z,4.18
2023-04-18T12:43:31.725Z,4.15
2023-04-18T12:46:00.422Z,4.35
2023-04-18T12:48:28.182Z,4.43
2023-04-18T12:50:55.915Z,4.30
2023-04-18T12:53:23.279Z,5.60
2023-04-18T12:55:54.006Z,5.03
2023-04-18T12:58:21.811Z,4.53
2023-04-18T13:00:49.772Z,3.92
2023-04-18T13:03:18.516Z,3.95
2023-04-18T13:05:46.260Z,5.50
2023-04-18T13:08:17.668Z,5.35
2023-04-18T13:10:47.828Z,4.53
2023-04-18T13:13:15.322Z,7.18
2023-04-18T13:15:43.089Z,3.83
2023-04-18T13:18:10.508Z,6.18
2023-04-18T13:20:38.521Z,8.30
2023-04-18T13:23:08.177Z,4.13
2023-04-18T13:25:36.628Z,4.65
2023-04-18T13:28:04.695Z,4.47
2023-04-18T13:30:32.520Z,4.63
2023-04-18T13:33:00.140Z,5.15
2023-04-18T13:35:28.570Z,4.53
2023-04-18T13:37:56.878Z,4.50
2023-04-18T13:40:29.421Z,4.85
2023-04-18T13:42:58.179Z,4.25
2023-04-18T13:45:25.895Z,4.93
2023-04-18T13:47:53.421Z,4.45
2023-04-18T13:50:23.336Z,5.47
2023-04-18T13:52:54.949Z,7.68
2023-04-18T13:55:22.967Z,5.03
2023-04-18T13:57:50.377Z,5.45
2023-04-18T14:00:19.516Z,7.43
2023-04-18T14:02:47.140Z,40.97
2023-04-18T14:05:14.992Z,10.48
2023-04-18T14:07:42.321Z,6.07
2023-04-18T14:10:10.596Z,5.20
2023-04-18T14:12:38.247Z,5.30
2023-04-18T14:15:06.481Z,5.35
2023-04-18T14:17:34.267Z,5.65
2023-04-18T14:20:02.551Z,5.65
2023-04-18T14:22:35.007Z,6.10
2023-04-18T14:25:03.043Z,5.53
2023-04-18T14:27:30.357Z,6.72
2023-04-18T14:29:58.054Z,7.20
2023-04-18T14:32:25.536Z,8.38
2023-04-18T14:34:53.646Z,6.88
2023-04-18T14:37:21.396Z,6.60
2023-04-18T14:39:50.766Z,6.40
2023-04-18T14:42:18.656Z,5.22
2023-04-18T14:44:46.541Z,5.10
2023-04-18T14:47:15.405Z,5.80
2023-04-18T14:49:43.052Z,5.70
2023-04-18T14:52:10.476Z,6.65
2023-04-18T14:54:38.147Z,6.32
2023-04-18T14:57:05.461Z,6.43
2023-04-18T14:59:33.176Z,5.45
2023-04-18T15:02:00.699Z,4.72
2023-04-18T15:04:28.602Z,5.18
2023-04-18T15:06:56.529Z,4.82
2023-04-18T15:09:24.514Z,5.35
2023-04-18T15:11:54.519Z,5.88
2023-04-18T15:14:23.630Z,5.82
2023-04-18T15:16:51.883Z,5.35
2023-04-18T15:19:19.646Z,5.15
2023-04-18T15:21:47.023Z,3.92
2023-04-18T15:24:16.443Z,3.65
2023-04-18T15:26:45.741Z,3.65
2023-04-18T15:29:14.156Z,4.38
2023-04-18T15:31:41.668Z,5.13
2023-04-18T15:34:11.870Z,7.32
2023-04-18T15:36:39.378Z,7.10
2023-04-18T15:39:07.617Z,8.18
2023-04-18T15:41:37.363Z,8.73
2023-04-18T15:44:08.140Z,6.63
2023-04-18T15:46:36.921Z,7.03
2023-04-18T15:49:04.809Z,5.60
2023-04-18T15:51:32.173Z,4.78
2023-04-18T15:54:01.062Z,5.97
2023-04-18T15:56:33.079Z,6.22
2023-04-18T15:59:02.657Z,8.93
2023-04-18T16:01:30.569Z,7.78
2023-04-18T16:04:01.764Z,6.57
2023-04-18T16:06:31.417Z,9.00
2023-04-18T16:09:01.563Z,8.18
2023-04-18T16:11:30.635Z,7.60
2023-04-18T16:13:59.119Z,7.60
2023-04-18T16:16:28.473Z,6.75
2023-04-18T16:18:58.464Z,7.38
2023-04-18T16:21:26.419Z,7.20
2023-04-18T16:23:54.261Z,6.85
2023-04-18T16:26:21.755Z,8.93
2023-04-18T16:28:49.474Z,9.27
2023-04-18T16:31:17.253Z,9.10
2023-04-18T16:33:45.561Z,7.93
2023-04-18T16:36:14.038Z,7.30
2023-04-18T16:38:41.715Z,8.95
2023-04-18T16:41:10.019Z,7.57
2023-04-18T16:43:38.194Z,18.30
2023-04-18T16:46:05.838Z,8.00
2023-04-18T16:48:33.658Z,9.45
2023-04-18T16:51:02.594Z,10.90
2023-04-18T16:53:31.703Z,16.48
2023-04-18T16:56:03.387Z,14.90
2023-04-18T16:58:35.577Z,10.45
2023-04-18T17:01:03.513Z,13.90
2023-04-18T17:03:31.678Z,19.35
2023-04-18T17:06:01.607Z,21.50
2023-04-18T17:08:29.490Z,13.13
2023-04-18T17:10:56.837Z,21.63
2023-04-18T17:13:27.169Z,15.13
2023-04-18T17:15:56.439Z,22.10
2023-04-18T17:18:29.604Z,23.15
2023-04-18T17:21:00.887Z,22.60
2023-04-18T17:23:32.889Z,19.70
2023-04-18T17:26:02.557Z,23.80
2023-04-18T17:28:30.661Z,30.00
2023-04-18T17:31:01.531Z,25.48
2023-04-18T17:33:29.181Z,27.25
2023-04-18T17:35:59.255Z,24.20
2023-04-18T17:38:28.578Z,25.45
2023-04-18T17:40:59.781Z,26.88
2023-04-18T17:43:27.642Z,27.65
2023-04-18T17:45:56.164Z,39.10
2023-04-18T17:48:27.629Z,36.35
2023-04-18T17:50:56.845Z,37.80
2023-04-18T17:53:24.652Z,33.65
2023-04-18T17:55:58.992Z,31.95
2023-04-18T17:58:29.298Z,33.83
2023-04-18T18:00:56.969Z,34.78
2023-04-18T18:03:25.591Z,32.47
2023-04-18T18:05:55.701Z,26.58
2023-04-18T18:08:26.532Z,24.52
2023-04-18T18:10:54.578Z,25.25
2023-04-18T18:13:32.785Z,24.27
2023-04-18T18:16:06.797Z,24.73
2023-04-18T18:18:56.924Z,28.95
2023-04-18T18:21:31.280Z,36.47
2023-04-18T18:26:36.270Z,42.63
2023-04-18T18:29:24.066Z,41.13
2023-04-18T18:31:58.178Z,43.95
2023-04-18T18:34:37.069Z,47.53
2023-04-18T18:37:18.765Z,34.88
2023-04-18T18:39:50.426Z,47.00
2023-04-18T18:42:23.660Z,48.97
2023-04-18T18:44:54.220Z,46.63
2023-04-18T18:47:27.924Z,34.22
2023-04-18T18:50:22.932Z,28.00
2023-04-18T18:52:57.727Z,26.85
2023-04-18T18:55:39.760Z,27.60
2023-04-18T18:58:22.999Z,21.63
2023-04-18T19:03:48.682Z,17.50
2023-04-18T19:06:18.559Z,17.73
2023-04-18T19:09:03.630Z,17.88
2023-04-18T19:12:04.635Z,19.38
2023-04-18T19:14:46.982Z,19.02
2023-04-18T19:17:24.919Z,16.23
2023-04-18T19:20:00.387Z,17.20
2023-04-18T19:26:23.256Z,15.52
2023-04-18T19:28:52.933Z,12.85
2023-04-18T19:31:56.811Z,13.30
2023-04-18T19:34:30.701Z,11.43
2023-04-18T19:37:01.946Z,13.68
2023-04-18T19:39:32.014Z,13.02
2023-04-18T19:42:03.104Z,11.20
2023-04-18T19:47:34.132Z,12.38
2023-04-18T19:50:25.884Z,13.85
2023-04-18T19:52:53.657Z,13.82
2023-04-18T19:55:22.219Z,17.98
2023-04-18T19:58:00.904Z,22.33
2023-04-18T20:00:57.887Z,22.35
2023-04-18T20:03:38.872Z,18.60
2023-04-18T20:06:35.485Z,19.60
2023-04-18T20:09:18.498Z,20.55
2023-04-18T20:11:50.699Z,20.00
2023-04-18T20:14:18.293Z,22.23
2023-04-18T20:16:50.754Z,22.25
2023-04-18T20:19:44.626Z,22.52
2023-04-18T20:22:15.236Z,23.73
2023-04-18T20:24:49.636Z,28.23
2023-04-18T20:27:20.810Z,29.17
2023-04-18T20:29:51.604Z,27.10
2023-04-18T20:32:26.060Z,23.65
2023-04-18T20:34:53.716Z,21.77
2023-04-18T20:37:29.400Z,23.48
2023-04-18T20:40:00.118Z,22.60
2023-04-18T20:42:33.213Z,22.90
2023-04-18T20:45:17.604Z,23.95
2023-04-18T20:48:13.121Z,23.13
2023-04-18T20:51:13.271Z,23.83
2023-04-18T20:53:43.772Z,22.85
2023-04-18T20:56:18.133Z,22.92
2023-04-18T20:58:56.158Z,20.58
2023-04-18T21:01:38.292Z,21.17
2023-04-18T21:04:11.721Z,18.15
2023-04-18T21:06:40.710Z,21.15
2023-04-18T21:09:13.486Z,15.77
2023-04-18T21:11:43.238Z,13.75
2023-04-18T21:14:11.097Z,15.30
2023-04-18T21:16:44.616Z,15.10
2023-04-18T21:19:20.831Z,16.83
2023-04-18T21:21:51.637Z,16.25
2023-04-18T21:24:26.475Z,19.10
2023-04-18T21:26:57.987Z,20.92
2023-04-18T21:29:25.722Z,22.15
2023-04-18T21:31:53.351Z,28.75
2023-04-18T21:34:23.257Z,21.35
2023-04-18T21:36:58.978Z,20.17
2023-04-18T21:39:33.696Z,20.40
2023-04-18T21:42:07.079Z,16.38
2023-04-18T21:44:38.077Z,16.45
2023-04-18T21:47:07.430Z,18.75
2023-04-18T21:49:38.104Z,18.63
2023-04-18T21:52:18.169Z,17.17
2023-04-18T21:54:56.665Z,17.98
2023-04-18T21:57:25.486Z,15.70
2023-04-18T22:00:00.542Z,14.02
2023-04-18T22:03:32.584Z,12.27
2023-04-18T22:06:47.927Z,14.13
2023-04-18T22:09:58.727Z,29.05
2023-04-18T22:12:34.614Z,28.38
2023-04-18T22:15:14.222Z,29.10
2023-04-18T22:18:03.454Z,27.20
2023-04-18T22:20:58.313Z,20.35
2023-04-18T22:26:11.442Z,16.15
2023-04-18T22:28:40.244Z,16.35
2023-04-18T22:31:09.221Z,17.33
2023-04-18T22:33:36.590Z,17.70
2023-04-18T22:36:06.642Z,16.90
2023-04-18T22:38:34.124Z,20.38
2023-04-18T22:41:02.851Z,26.55
2023-04-18T22:43:36.353Z,22.95
2023-04-18T22:46:06.771Z,21.48
2023-04-18T22:48:52.586Z,21.20
2023-04-18T22:51:21.344Z,20.10
2023-04-18T22:53:48.911Z,74.07
2023-04-18T22:56:29.003Z,22.48
2023-04-18T22:58:56.640Z,18.98
2023-04-18T23:01:25.389Z,20.33
2023-04-18T23:03:53.263Z,19.27
2023-04-18T23:06:22.264Z,20.00
2023-04-18T23:08:50.262Z,20.77
2023-04-18T23:11:19.851Z,19.92
2023-04-18T23:13:48.068Z,19.67
2023-04-18T23:16:16.074Z,19.85
2023-04-18T23:18:44.677Z,20.65
2023-04-18T23:21:35.047Z,19.88
2023-04-18T23:24:05.404Z,19.38
2023-04-18T23:26:36.275Z,18.92
2023-04-18T23:29:05.042Z,21.40
2023-04-18T23:31:42.224Z,19.90
2023-04-18T23:34:11.037Z,20.08
2023-04-18T23:36:40.586Z,18.50
2023-04-18T23:39:11.376Z,19.75
2023-04-18T23:41:41.072Z,18.88
2023-04-18T23:44:08.624Z,19.05
2023-04-18T23:46:36.727Z,20.55
2023-04-18T23:49:05.694Z,19.73
2023-04-18T23:51:33.484Z,20.48
2023-04-18T23:54:01.540Z,20.02
2023-04-18T23:56:29.856Z,19.92
2023-04-18T23:58:57.572Z,18.70
